Time;durP1;ratioP1;P1;durP2;ratioP2;P2;SDS_P1;SDS_P2;PMS_P1;PMS_P2;Temp;Humidity;BMP_temperature;BMP_pressure;BME280_temperature;BME280_humidity;BME280_pressure;Samples;Min_cycle;Max_cycle;Signal;HPM_P1;HPM_P2
2023/11/02 06:54:36;;;;;;;0.50;0.50;;;;;;;;;;7396899;19;20424;-87
2023/11/02 06:57:10;;;;;;;0.30;0.30;;;;;;;;;;7393130;19;20354;-85
2023/11/02 06:59:37;;;;;;;0.60;0.60;;;;;;;;;;7397964;19;20328;-89
2023/11/02 07:02:04;;;;;;;0.40;0.40;;;;;;;;;;7396046;19;20422;-88
2023/11/02 07:04:31;;;;;;;0.50;0.30;;;;;;;;;;7387482;19;20793;-88
2023/11/02 07:06:57;;;;;;;0.50;0.50;;;;;;;;;;7393795;19;20866;-88
2023/11/02 07:09:25;;;;;;;0.43;0.43;;;;;;;;;;7388156;19;20364;-88
2023/11/02 07:11:51;;;;;;;0.60;0.60;;;;;;;;;;7395090;19;20855;-88
2023/11/02 07:14:18;;;;;;;0.50;0.50;;;;;;;;;;7392260;19;20676;-89
2023/11/02 07:16:46;;;;;;;0.40;0.40;;;;;;;;;;7389128;19;20340;-89
2023/11/02 07:19:12;;;;;;;0.32;0.32;;;;;;;;;;7398089;19;20332;-86
2023/11/02 07:21:39;;;;;;;0.40;0.40;;;;;;;;;;7402508;19;20410;-88
2023/11/02 07:24:06;;;;;;;0.40;0.40;;;;;;;;;;7400906;19;20360;-85
2023/11/02 07:26:37;;;;;;;0.22;0.22;;;;;;;;;;7396233;19;20655;-89
2023/11/02 07:29:04;;;;;;;1.27;0.75;;;;;;;;;;7392432;19;20382;-88
2023/11/02 07:31:30;;;;;;;0.60;0.60;;;;;;;;;;7394498;19;20766;-88
2023/11/02 07:33:58;;;;;;;0.30;0.30;;;;;;;;;;7391991;19;20375;-89
2023/11/02 07:36:25;;;;;;;0.40;0.40;;;;;;;;;;7394049;19;20361;-88
2023/11/02 07:38:52;;;;;;;0.30;0.30;;;;;;;;;;7393406;19;20365;-89
2023/11/02 07:41:20;;;;;;;0.40;0.35;;;;;;;;;;7394824;19;20324;-89
2023/11/02 07:43:47;;;;;;;1.17;0.47;;;;;;;;;;7392134;19;20356;-90
2023/11/02 07:46:14;;;;;;;0.30;0.30;;;;;;;;;;7393362;19;20393;-90
2023/11/02 07:48:41;;;;;;;0.40;0.40;;;;;;;;;;7393258;19;20444;-92
2023/11/02 07:51:08;;;;;;;0.30;0.30;;;;;;;;;;7393411;19;20356;-89
2023/11/02 07:53:35;;;;;;;0.20;0.20;;;;;;;;;;7392443;19;20351;-90
2023/11/02 07:56:02;;;;;;;0.70;0.70;;;;;;;;;;7393375;19;20352;-91
2023/11/02 07:58:29;;;;;;;0.40;0.40;;;;;;;;;;7393000;19;20348;-90
2023/11/02 08:00:56;;;;;;;0.30;0.30;;;;;;;;;;7391965;19;20347;-91
2023/11/02 08:03:24;;;;;;;0.32;0.32;;;;;;;;;;7393140;19;20360;-88
2023/11/02 08:05:51;;;;;;;0.40;0.40;;;;;;;;;;7395977;19;20447;-88
2023/11/02 08:08:18;;;;;;;0.47;0.47;;;;;;;;;;7398084;19;20368;-88
2023/11/02 08:10:46;;;;;;;0.45;0.45;;;;;;;;;;7398007;19;20371;-88
2023/11/02 08:13:13;;;;;;;0.50;0.50;;;;;;;;;;7397230;19;20699;-88
2023/11/02 08:15:41;;;;;;;0.63;0.52;;;;;;;;;;7396090;19;20365;-88
2023/11/02 08:18:08;;;;;;;0.50;0.50;;;;;;;;;;7395216;19;20336;-87
2023/11/02 08:20:35;;;;;;;0.40;0.40;;;;;;;;;;7395921;19;20368;-88
2023/11/02 08:23:02;;;;;;;0.30;0.30;;;;;;;;;;7394863;19;20348;-87
2023/11/02 08:25:29;;;;;;;0.30;0.30;;;;;;;;;;7393101;19;20900;-87
2023/11/02 08:27:58;;;;;;;0.20;0.20;;;;;;;;;;7394461;19;20358;-87
2023/11/02 08:30:26;;;;;;;0.50;0.50;;;;;;;;;;7395991;19;20971;-87
2023/11/02 08:32:53;;;;;;;0.40;0.40;;;;;;;;;;7395541;19;20378;-88
2023/11/02 08:35:21;;;;;;;0.20;0.20;;;;;;;;;;7393529;19;20380;-88
2023/11/02 08:37:49;;;;;;;2.35;0.47;;;;;;;;;;7392849;19;20415;-88
2023/11/02 08:40:18;;;;;;;0.30;0.30;;;;;;;;;;7395361;19;20432;-87
2023/11/02 08:42:45;;;;;;;0.30;0.30;;;;;;;;;;7395371;19;20352;-88
2023/11/02 08:45:16;;;;;;;0.40;0.40;;;;;;;;;;7395892;19;20717;-88
2023/11/02 08:47:43;;;;;;;0.38;0.38;;;;;;;;;;7395327;19;20856;-87
2023/11/02 08:50:11;;;;;;;0.30;0.30;;;;;;;;;;7396505;19;20364;-88
2023/11/02 08:52:39;;;;;;;0.40;0.40;;;;;;;;;;7396227;19;20368;-87
2023/11/02 08:55:06;;;;;;;0.90;0.90;;;;;;;;;;7397408;19;20730;-87
2023/11/02 08:57:33;;;;;;;0.35;0.35;;;;;;;;;;7395109;19;20920;-88
2023/11/02 09:00:01;;;;;;;0.30;0.30;;;;;;;;;;7396291;19;20920;-87
2023/11/02 09:02:29;;;;;;;0.35;0.35;;;;;;;;;;7395272;19;20345;-87
2023/11/02 09:04:59;;;;;;;0.28;0.28;;;;;;;;;;7397167;19;20360;-87
2023/11/02 09:07:28;;;;;;;0.50;0.50;;;;;;;;;;7393002;19;20337;-87
2023/11/02 09:09:55;;;;;;;0.40;0.40;;;;;;;;;;7397644;19;20370;-88
2023/11/02 09:12:22;;;;;;;0.40;0.40;;;;;;;;;;7396906;19;20436;-88
2023/11/02 09:14:49;;;;;;;0.40;0.40;;;;;;;;;;7396839;19;21114;-88
2023/11/02 09:17:16;;;;;;;0.50;0.50;;;;;;;;;;7403523;19;20360;-90
2023/11/02 09:19:43;;;;;;;0.30;0.30;;;;;;;;;;7404710;19;20357;-87
2023/11/02 09:22:10;;;;;;;0.45;0.45;;;;;;;;;;7425834;19;20405;-91
2023/11/02 09:24:38;;;;;;;0.57;0.57;;;;;;;;;;7408438;19;20911;-90
2023/11/02 09:27:05;;;;;;;0.50;0.50;;;;;;;;;;7410064;19;20363;-89
2023/11/02 09:29:31;;;;;;;0.40;0.40;;;;;;;;;;7424100;19;20361;-89
2023/11/02 09:31:59;;;;;;;0.40;0.40;;;;;;;;;;7426932;19;20371;-87
2023/11/02 09:34:30;;;;;;;0.40;0.40;;;;;;;;;;7407550;19;20743;-87
2023/11/02 09:36:58;;;;;;;1.15;0.55;;;;;;;;;;7406109;19;20367;-87
2023/11/02 09:39:25;;;;;;;0.50;0.50;;;;;;;;;;7409363;19;20915;-87
2023/11/02 09:41:52;;;;;;;0.45;0.45;;;;;;;;;;7409943;19;20938;-87
2023/11/02 09:44:18;;;;;;;0.70;0.53;;;;;;;;;;7406026;19;20688;-87
2023/11/02 09:46:45;;;;;;;0.30;0.30;;;;;;;;;;7407366;19;20423;-88
2023/11/02 09:49:12;;;;;;;0.30;0.30;;;;;;;;;;7405125;19;20340;-89
2023/11/02 09:51:39;;;;;;;0.30;0.30;;;;;;;;;;7406289;19;20365;-88
2023/11/02 09:54:07;;;;;;;0.30;0.30;;;;;;;;;;7402760;19;20371;-88
2023/11/02 09:56:34;;;;;;;0.30;0.30;;;;;;;;;;7404313;19;20353;-89
2023/11/02 09:59:01;;;;;;;0.30;0.30;;;;;;;;;;7402057;19;20983;-88
2023/11/02 10:01:29;;;;;;;0.20;0.20;;;;;;;;;;7400681;19;20963;-91
2023/11/02 10:03:56;;;;;;;0.45;0.45;;;;;;;;;;7401257;19;20416;-88
2023/11/02 10:06:24;;;;;;;1.00;0.50;;;;;;;;;;7397928;19;20352;-89
2023/11/02 10:08:52;;;;;;;0.20;0.20;;;;;;;;;;7399053;19;20373;-89
2023/11/02 10:11:19;;;;;;;0.40;0.40;;;;;;;;;;7400204;19;20365;-89
2023/11/02 10:13:50;;;;;;;0.77;0.70;;;;;;;;;;7397227;19;20375;-89
2023/11/02 10:16:24;;;;;;;0.28;0.28;;;;;;;;;;7398152;19;20417;-89
2023/11/02 10:18:51;;;;;;;0.38;0.38;;;;;;;;;;7395274;19;20363;-90
2023/11/02 10:21:20;;;;;;;0.30;0.30;;;;;;;;;;7397687;19;20390;-90
2023/11/02 10:23:49;;;;;;;0.40;0.40;;;;;;;;;;7394981;19;20388;-91
2023/11/02 10:26:15;;;;;;;0.60;0.60;;;;;;;;;;7397466;19;20848;-89
2023/11/02 10:28:43;;;;;;;0.30;0.30;;;;;;;;;;7400833;19;20806;-89
2023/11/02 10:31:09;;;;;;;0.20;0.20;;;;;;;;;;7404450;19;20898;-89
2023/11/02 10:33:36;;;;;;;0.30;0.30;;;;;;;;;;7400961;19;20820;-88
2023/11/02 10:36:05;;;;;;;0.30;0.30;;;;;;;;;;7398391;19;20383;-88
2023/11/02 10:38:32;;;;;;;0.40;0.40;;;;;;;;;;7396521;19;20901;-90
2023/11/02 10:40:59;;;;;;;0.40;0.40;;;;;;;;;;7397445;19;20700;-88
2023/11/02 10:43:27;;;;;;;0.20;0.20;;;;;;;;;;7393542;19;20353;-90
2023/11/02 10:45:54;;;;;;;0.30;0.30;;;;;;;;;;7396091;19;20352;-89
2023/11/02 10:48:22;;;;;;;0.45;0.45;;;;;;;;;;7395674;19;20355;-90
2023/11/02 10:50:53;;;;;;;0.40;0.40;;;;;;;;;;7397239;19;20393;-89
2023/11/02 10:53:34;;;;;;;0.47;0.47;;;;;;;;;;7395400;19;20356;-90
2023/11/02 10:56:06;;;;;;;0.40;0.40;;;;;;;;;;7395394;19;20359;-90
2023/11/02 10:58:34;;;;;;;0.25;0.25;;;;;;;;;;7396507;19;20424;-90
2023/11/02 11:01:01;;;;;;;0.38;0.38;;;;;;;;;;7395238;19;20349;-90
2023/11/02 11:03:28;;;;;;;0.28;0.28;;;;;;;;;;7394458;19;20368;-90
2023/11/02 11:05:56;;;;;;;0.35;0.35;;;;;;;;;;7394390;19;20359;-89
2023/11/02 11:08:27;;;;;;;0.30;0.30;;;;;;;;;;7394000;19;20392;-90
2023/11/02 11:10:54;;;;;;;0.40;0.40;;;;;;;;;;7394363;19;20407;-90
2023/11/02 11:13:21;;;;;;;0.30;0.30;;;;;;;;;;7394167;19;20461;-89
2023/11/02 11:15:48;;;;;;;0.40;0.40;;;;;;;;;;7403677;19;20336;-89
2023/11/02 11:18:17;;;;;;;0.30;0.30;;;;;;;;;;7417336;19;20475;-90
2023/11/02 11:20:45;;;;;;;0.30;0.30;;;;;;;;;;7395664;19;20368;-90
2023/11/02 11:23:14;;;;;;;0.30;0.30;;;;;;;;;;7394217;19;20375;-90
2023/11/02 11:25:58;;;;;;;0.20;0.20;;;;;;;;;;7393890;19;20399;-90
2023/11/02 11:28:31;;;;;;;0.30;0.30;;;;;;;;;;7393917;19;20348;-90
2023/11/02 11:30:59;;;;;;;0.30;0.30;;;;;;;;;;7396123;19;20341;-90
2023/11/02 11:33:44;;;;;;;0.30;0.30;;;;;;;;;;7393252;19;20357;-90
2023/11/02 11:36:25;;;;;;;0.50;0.50;;;;;;;;;;7393896;19;20357;-89
2023/11/02 11:38:52;;;;;;;0.20;0.20;;;;;;;;;;7392298;19;20884;-88
2023/11/02 11:41:51;;;;;;;0.30;0.30;;;;;;;;;;7394216;19;20356;-89
2023/11/02 11:44:19;;;;;;;0.30;0.30;;;;;;;;;;7391732;19;20904;-88
2023/11/02 11:46:56;;;;;;;0.30;0.30;;;;;;;;;;7395631;19;20368;-88
2023/11/02 11:49:33;;;;;;;0.30;0.30;;;;;;;;;;7390939;19;20348;-90
2023/11/02 11:52:01;;;;;;;0.30;0.30;;;;;;;;;;7397398;19;20442;-88
2023/11/02 11:54:29;;;;;;;0.20;0.20;;;;;;;;;;7392409;19;20353;-90
2023/11/02 11:56:55;;;;;;;0.30;0.30;;;;;;;;;;7395839;19;20347;-91
2023/11/02 11:59:56;;;;;;;0.30;0.30;;;;;;;;;;7393117;19;20351;-89
2023/11/02 12:02:38;;;;;;;0.30;0.30;;;;;;;;;;7391891;19;20348;-92
2023/11/02 12:05:05;;;;;;;0.30;0.30;;;;;;;;;;7394035;19;20767;-90
2023/11/02 12:07:33;;;;;;;0.30;0.30;;;;;;;;;;7391624;19;20328;-89
2023/11/02 12:10:01;;;;;;;0.30;0.30;;;;;;;;;;7393472;19;20357;-88
2023/11/02 12:12:32;;;;;;;0.40;0.40;;;;;;;;;;7395582;19;20348;-88
2023/11/02 12:15:18;;;;;;;0.30;0.30;;;;;;;;;;7393511;19;20344;-88
2023/11/02 12:17:50;;;;;;;0.20;0.20;;;;;;;;;;7393266;19;20361;-88
2023/11/02 12:20:36;;;;;;;0.30;0.30;;;;;;;;;;7391320;19;20419;-89
2023/11/02 12:23:04;;;;;;;0.40;0.40;;;;;;;;;;7392330;19;20353;-91
2023/11/02 12:25:32;;;;;;;0.30;0.30;;;;;;;;;;7391929;19;20916;-91
2023/11/02 12:28:00;;;;;;;0.20;0.20;;;;;;;;;;7390672;19;20886;-91
2023/11/02 12:30:29;;;;;;;0.40;0.40;;;;;;;;;;7392334;19;20348;-92
2023/11/02 12:32:56;;;;;;;0.20;0.20;;;;;;;;;;7392402;19;20428;-90
2023/11/02 12:35:24;;;;;;;0.30;0.30;;;;;;;;;;7390742;19;20354;-90
2023/11/02 12:38:01;;;;;;;0.20;0.20;;;;;;;;;;7391957;19;20343;-89
2023/11/02 12:40:28;;;;;;;0.30;0.30;;;;;;;;;;7391502;19;20340;-89
2023/11/02 12:42:55;;;;;;;0.30;0.30;;;;;;;;;;7392105;19;20352;-90
2023/11/02 12:45:24;;;;;;;0.30;0.30;;;;;;;;;;7390579;19;20356;-90
2023/11/02 12:47:51;;;;;;;4.30;0.50;;;;;;;;;;7390825;19;20414;-90
2023/11/02 12:50:33;;;;;;;0.30;0.30;;;;;;;;;;7391889;19;20357;-90
2023/11/02 12:53:00;;;;;;;0.20;0.20;;;;;;;;;;7392124;19;20340;-89
2023/11/02 12:55:45;;;;;;;0.40;0.40;;;;;;;;;;7393595;19;20359;-89
2023/11/02 12:58:15;;;;;;;0.20;0.20;;;;;;;;;;7393785;19;20349;-89
2023/11/02 13:00:42;;;;;;;0.55;0.55;;;;;;;;;;7392041;19;20364;-88
2023/11/02 13:03:11;;;;;;;0.30;0.30;;;;;;;;;;7391870;19;20356;-90
2023/11/02 13:05:38;;;;;;;0.30;0.30;;;;;;;;;;7391324;19;20998;-90
2023/11/02 13:08:17;;;;;;;0.30;0.30;;;;;;;;;;7389363;19;20357;-89
2023/11/02 13:10:45;;;;;;;0.30;0.30;;;;;;;;;;7394085;19;20375;-88
2023/11/02 13:13:13;;;;;;;0.80;0.80;;;;;;;;;;7393762;19;20401;-88
2023/11/02 13:15:40;;;;;;;0.20;0.20;;;;;;;;;;7393701;19;20339;-88
2023/11/02 13:18:07;;;;;;;0.40;0.40;;;;;;;;;;7393902;19;20772;-88
2023/11/02 13:20:34;;;;;;;0.30;0.30;;;;;;;;;;7394374;19;20369;-89
2023/11/02 13:23:02;;;;;;;0.45;0.45;;;;;;;;;;7391727;19;20420;-89
2023/11/02 13:25:29;;;;;;;0.35;0.35;;;;;;;;;;7392991;19;20907;-89
2023/11/02 13:27:56;;;;;;;0.20;0.20;;;;;;;;;;7390256;19;20674;-89
2023/11/02 13:30:23;;;;;;;0.30;0.30;;;;;;;;;;7393771;19;20361;-89
2023/11/02 13:32:54;;;;;;;0.30;0.30;;;;;;;;;;7395931;19;20387;-91
2023/11/02 13:35:21;;;;;;;0.30;0.30;;;;;;;;;;7397203;19;20353;-89
2023/11/02 13:37:50;;;;;;;0.38;0.38;;;;;;;;;;7396732;19;20359;-90
2023/11/02 13:40:20;;;;;;;0.30;0.30;;;;;;;;;;7395467;19;20775;-89
2023/11/02 13:42:48;;;;;;;0.30;0.30;;;;;;;;;;7397187;19;20432;-89
2023/11/02 13:45:15;;;;;;;0.28;0.28;;;;;;;;;;7400089;19;20357;-88
2023/11/02 13:47:42;;;;;;;0.40;0.40;;;;;;;;;;7397164;19;20382;-89
2023/11/02 13:50:13;;;;;;;0.30;0.30;;;;;;;;;;7398853;19;20360;-89
2023/11/02 13:52:43;;;;;;;0.25;0.25;;;;;;;;;;7394426;19;20436;-88
2023/11/02 13:55:10;;;;;;;0.30;0.30;;;;;;;;;;7395072;19;20353;-89
2023/11/02 13:57:38;;;;;;;0.20;0.20;;;;;;;;;;7395185;19;20353;-88
2023/11/02 14:00:06;;;;;;;0.30;0.30;;;;;;;;;;7397474;19;20344;-89
2023/11/02 14:02:32;;;;;;;0.35;0.35;;;;;;;;;;7397892;19;20943;-89
2023/11/02 14:04:59;;;;;;;0.40;0.40;;;;;;;;;;7404466;19;20337;-89
2023/11/02 14:07:29;;;;;;;0.30;0.30;;;;;;;;;;7402904;19;20675;-88
2023/11/02 14:09:56;;;;;;;0.20;0.20;;;;;;;;;;7399425;19;20332;-89
2023/11/02 14:12:25;;;;;;;0.30;0.30;;;;;;;;;;7402526;19;20880;-87
2023/11/02 14:14:52;;;;;;;0.20;0.20;;;;;;;;;;7389674;19;20348;-88
2023/11/02 14:17:22;;;;;;;0.30;0.30;;;;;;;;;;7391342;19;20421;-90
2023/11/02 14:19:50;;;;;;;0.27;0.27;;;;;;;;;;7391866;19;20348;-89
2023/11/02 14:22:18;;;;;;;0.32;0.32;;;;;;;;;;7393737;19;20934;-88
2023/11/02 14:24:48;;;;;;;0.30;0.30;;;;;;;;;;7390549;19;21137;-90
2023/11/02 14:27:17;;;;;;;0.30;0.30;;;;;;;;;;7396814;19;20423;-89
2023/11/02 14:29:55;;;;;;;0.30;0.30;;;;;;;;;;7395052;19;20356;-89
2023/11/02 14:32:23;;;;;;;0.30;0.30;;;;;;;;;;7392588;19;20361;-88
2023/11/02 14:34:50;;;;;;;0.30;0.30;;;;;;;;;;7394147;19;20372;-90
2023/11/02 14:37:19;;;;;;;0.40;0.40;;;;;;;;;;7397831;19;20372;-89
2023/11/02 14:39:58;;;;;;;0.20;0.20;;;;;;;;;;7401059;19;20444;-89
2023/11/02 14:42:40;;;;;;;0.50;0.50;;;;;;;;;;7399066;19;20336;-89
2023/11/02 14:45:07;;;;;;;0.20;0.20;;;;;;;;;;7391172;19;20375;-88
2023/11/02 14:47:34;;;;;;;0.30;0.30;;;;;;;;;;7391405;19;20337;-87
2023/11/02 14:50:04;;;;;;;0.20;0.20;;;;;;;;;;7388582;19;20341;-88
2023/11/02 14:52:32;;;;;;;0.30;0.30;;;;;;;;;;7394593;19;20363;-88
2023/11/02 14:55:05;;;;;;;0.28;0.28;;;;;;;;;;7392869;19;20352;-88
2023/11/02 14:57:42;;;;;;;0.40;0.40;;;;;;;;;;7394760;19;20357;-86
2023/11/02 15:04:07;;;;;;;0.30;0.30;;;;;;;;;;7385916;19;20359;-87
2023/11/02 15:06:54;;;;;;;0.30;0.30;;;;;;;;;;7389823;19;20332;-87
2023/11/02 15:09:27;;;;;;;0.40;0.40;;;;;;;;;;7380578;19;20343;-87
2023/11/02 15:11:59;;;;;;;0.20;0.20;;;;;;;;;;7393848;19;20887;-86
2023/11/02 15:14:27;;;;;;;0.35;0.35;;;;;;;;;;7395139;19;20709;-88
2023/11/02 15:17:13;;;;;;;0.20;0.20;;;;;;;;;;7394863;19;20680;-88
2023/11/02 15:20:05;;;;;;;0.30;0.30;;;;;;;;;;7394324;19;20686;-88
2023/11/02 15:22:36;;;;;;;0.60;0.60;;;;;;;;;;7394295;19;20371;-88
2023/11/02 15:25:12;;;;;;;0.40;0.40;;;;;;;;;;7394833;19;20388;-89
2023/11/02 15:27:42;;;;;;;0.30;0.30;;;;;;;;;;7396840;19;20733;-88
2023/11/02 15:30:11;;;;;;;0.20;0.20;;;;;;;;;;7396168;19;20353;-89
2023/11/02 15:32:46;;;;;;;0.30;0.30;;;;;;;;;;7398925;19;20366;-89
2023/11/02 15:35:18;;;;;;;0.30;0.30;;;;;;;;;;7396474;19;20344;-89
2023/11/02 15:37:51;;;;;;;0.30;0.30;;;;;;;;;;7394905;19;20424;-87
2023/11/02 15:40:23;;;;;;;0.30;0.30;;;;;;;;;;7397050;19;20881;-87
2023/11/02 15:42:56;;;;;;;0.30;0.30;;;;;;;;;;7397332;19;20357;-88
2023/11/02 15:45:59;;;;;;;0.30;0.30;;;;;;;;;;7399856;19;20913;-88
2023/11/02 15:48:52;;;;;;;0.30;0.30;;;;;;;;;;7397848;19;20383;-89
2023/11/02 15:51:25;;;;;;;0.22;0.22;;;;;;;;;;7399098;19;20356;-88
2023/11/02 15:53:52;;;;;;;0.30;0.30;;;;;;;;;;7397848;19;20360;-88
2023/11/02 15:56:19;;;;;;;0.27;0.27;;;;;;;;;;7409322;19;20360;-90
2023/11/02 15:58:50;;;;;;;0.20;0.20;;;;;;;;;;7410467;19;20717;-87
2023/11/02 16:01:28;;;;;;;0.30;0.30;;;;;;;;;;7395820;19;20389;-90
2023/11/02 16:03:58;;;;;;;0.20;0.20;;;;;;;;;;7392632;19;20341;-90
2023/11/02 16:06:28;;;;;;;0.30;0.30;;;;;;;;;;7395620;19;20440;-89
2023/11/02 16:08:56;;;;;;;0.20;0.20;;;;;;;;;;7398381;19;20737;-90
2023/11/02 16:11:23;;;;;;;0.30;0.30;;;;;;;;;;7399744;19;20352;-90
2023/11/02 16:13:50;;;;;;;0.40;0.40;;;;;;;;;;7395151;19;20368;-89
2023/11/02 16:16:18;;;;;;;0.30;0.30;;;;;;;;;;7398152;19;20341;-90
2023/11/02 16:18:45;;;;;;;0.45;0.45;;;;;;;;;;7396039;19;20356;-90
2023/11/02 16:24:33;;;;;;;0.30;0.30;;;;;;;;;;7388813;19;20372;-90
2023/11/02 16:27:00;;;;;;;0.30;0.30;;;;;;;;;;7388929;19;20349;-91
2023/11/02 16:29:26;;;;;;;0.70;0.70;;;;;;;;;;7387227;19;20349;-92
2023/11/02 16:32:42;;;;;;;0.30;0.30;;;;;;;;;;7394182;19;20158;-90
2023/11/02 16:35:44;;;;;;;0.30;0.30;;;;;;;;;;7389669;19;20144;-91
2023/11/02 16:38:34;;;;;;;0.30;0.30;;;;;;;;;;7389109;19;20215;-90
2023/11/02 16:41:14;;;;;;;0.30;0.30;;;;;;;;;;7385757;19;20176;-91
2023/11/02 16:47:16;;;;;;;0.82;0.45;;;;;;;;;;7388224;19;20356;-90
2023/11/02 16:49:55;;;;;;;0.20;0.20;;;;;;;;;;7384765;19;20360;-92
2023/11/02 16:55:26;;;;;;;0.20;0.20;;;;;;;;;;7388628;19;20345;-90
2023/11/02 17:02:05;;;;;;;0.30;0.30;;;;;;;;;;7391248;19;20335;-90
2023/11/02 17:08:21;;;;;;;0.50;0.50;;;;;;;;;;7387241;19;20363;-89
2023/11/02 17:10:49;;;;;;;0.40;0.40;;;;;;;;;;7385080;19;20424;-91
2023/11/02 17:13:27;;;;;;;0.40;0.40;;;;;;;;;;7385771;19;20341;-92
2023/11/02 17:15:57;;;;;;;0.20;0.20;;;;;;;;;;7390149;19;20434;-89
2023/11/02 17:18:28;;;;;;;0.30;0.30;;;;;;;;;;7387439;19;20362;-89
2023/11/02 17:20:56;;;;;;;0.40;0.40;;;;;;;;;;7389126;19;20352;-90
2023/11/02 17:23:26;;;;;;;0.30;0.30;;;;;;;;;;7389311;19;20365;-88
2023/11/02 17:25:55;;;;;;;0.32;0.32;;;;;;;;;;7389299;19;20344;-91
2023/11/02 17:28:22;;;;;;;0.32;0.30;;;;;;;;;;7391227;19;20420;-89
2023/11/02 17:30:50;;;;;;;0.30;0.30;;;;;;;;;;7386368;19;20375;-89
2023/11/02 17:33:16;;;;;;;0.30;0.30;;;;;;;;;;7387690;19;20352;-89
2023/11/02 17:35:43;;;;;;;0.30;0.30;;;;;;;;;;7393091;19;20739;-88
2023/11/02 17:38:10;;;;;;;0.30;0.30;;;;;;;;;;7397693;19;20753;-90
2023/11/02 17:40:38;;;;;;;0.30;0.30;;;;;;;;;;7397875;19;20351;-87
2023/11/02 17:43:08;;;;;;;0.60;0.60;;;;;;;;;;7398835;19;20369;-90
2023/11/02 17:45:35;;;;;;;0.50;0.50;;;;;;;;;;7397736;19;20348;-91
2023/11/02 17:48:08;;;;;;;0.50;0.50;;;;;;;;;;7396739;19;20345;-90
2023/11/02 17:50:40;;;;;;;0.30;0.30;;;;;;;;;;7397568;19;20352;-89
2023/11/02 17:53:08;;;;;;;0.30;0.30;;;;;;;;;;7395537;19;20348;-85
2023/11/02 17:55:34;;;;;;;0.32;0.32;;;;;;;;;;7396671;19;20336;-89
2023/11/02 17:58:01;;;;;;;0.23;0.23;;;;;;;;;;7398072;19;20424;-86
2023/11/02 18:00:30;;;;;;;0.50;0.50;;;;;;;;;;7399638;19;20368;-87
2023/11/02 18:02:56;;;;;;;0.20;0.20;;;;;;;;;;7397539;19;20348;-88
2023/11/02 18:05:23;;;;;;;0.38;0.38;;;;;;;;;;7397652;19;20441;-85
2023/11/02 18:07:50;;;;;;;0.40;0.40;;;;;;;;;;7392986;19;20861;-86
2023/11/02 18:10:17;;;;;;;0.30;0.30;;;;;;;;;;7397558;19;20353;-86
2023/11/02 18:12:44;;;;;;;0.35;0.35;;;;;;;;;;7418526;19;20407;-86
2023/11/02 18:15:11;;;;;;;0.30;0.30;;;;;;;;;;7407141;19;20368;-86
2023/11/02 18:17:38;;;;;;;0.30;0.30;;;;;;;;;;7400730;19;20704;-89
2023/11/02 18:20:07;;;;;;;0.30;0.30;;;;;;;;;;7397953;19;20897;-87
2023/11/02 18:22:33;;;;;;;0.40;0.40;;;;;;;;;;7399758;19;20934;-87
2023/11/02 18:25:00;;;;;;;0.30;0.30;;;;;;;;;;7397849;19;20352;-87
2023/11/02 18:27:27;;;;;;;0.40;0.40;;;;;;;;;;7397175;19;20368;-86
2023/11/02 18:29:55;;;;;;;0.30;0.30;;;;;;;;;;7395688;19;20352;-88
2023/11/02 18:32:29;;;;;;;0.30;0.30;;;;;;;;;;7396390;19;20428;-86
2023/11/02 18:34:55;;;;;;;0.20;0.20;;;;;;;;;;7396220;19;20349;-86
2023/11/02 18:37:22;;;;;;;0.20;0.20;;;;;;;;;;7397816;19;20432;-90
2023/11/02 18:40:42;;;;;;;0.30;0.30;;;;;;;;;;7398196;19;20353;-91
2023/11/02 19:07:31;;;;;;;0.20;0.20;;;;;;;;;;7395734;19;20368;-87
2023/11/02 19:09:58;;;;;;;0.40;0.40;;;;;;;;;;7400264;19;20678;-87
2023/11/02 19:12:26;;;;;;;0.28;0.28;;;;;;;;;;7402882;19;20358;-87
2023/11/02 19:14:53;;;;;;;0.40;0.40;;;;;;;;;;7401056;19;20363;-88
2023/11/02 19:17:19;;;;;;;0.35;0.35;;;;;;;;;;7397938;19;20333;-87
2023/11/02 19:19:46;;;;;;;0.30;0.30;;;;;;;;;;7397083;19;20340;-87
2023/11/02 19:22:14;;;;;;;0.20;0.20;;;;;;;;;;7399008;19;20349;-87
2023/11/02 19:24:44;;;;;;;0.50;0.50;;;;;;;;;;7398968;19;20884;-87
2023/11/02 19:27:31;;;;;;;0.30;0.30;;;;;;;;;;7401934;19;20348;-91
